sensor_id;sensor_type;location;lat;lon;timestamp;P1;durP1;ratioP1;P2;durP2;ratioP2
31390;SDS011;18022;45.492;11.548;2023-04-07T00:00:57;16.20;;;12.95;;
31390;SDS011;18022;45.492;11.548;2023-04-07T00:03:23;17.77;;;13.07;;
31390;SDS011;18022;45.492;11.548;2023-04-07T00:05:49;16.92;;;13.48;;
31390;SDS011;18022;45.492;11.548;2023-04-07T00:08:16;18.25;;;13.07;;
31390;SDS011;18022;45.492;11.548;2023-04-07T00:10:42;17.38;;;12.60;;
31390;SDS011;18022;45.492;11.548;2023-04-07T00:13:08;17.20;;;12.90;;
31390;SDS011;18022;45.492;11.548;2023-04-07T00:15:34;17.33;;;13.10;;
31390;SDS011;18022;45.492;11.548;2023-04-07T00:18:00;18.95;;;13.45;;
31390;SDS011;18022;45.492;11.548;2023-04-07T00:20:26;17.83;;;12.55;;
31390;SDS011;18022;45.492;11.548;2023-04-07T00:22:52;17.52;;;13.18;;
31390;SDS011;18022;45.492;11.548;2023-04-07T00:25:18;18.40;;;12.68;;
31390;SDS011;18022;45.492;11.548;2023-04-07T00:27:44;15.48;;;12.55;;
31390;SDS011;18022;45.492;11.548;2023-04-07T00:30:10;16.40;;;13.20;;
31390;SDS011;18022;45.492;11.548;2023-04-07T00:32:36;19.98;;;13.30;;
31390;SDS011;18022;45.492;11.548;2023-04-07T00:35:02;20.45;;;13.73;;
31390;SDS011;18022;45.492;11.548;2023-04-07T00:37:28;24.60;;;14.07;;
31390;SDS011;18022;45.492;11.548;2023-04-07T00:39:54;18.65;;;13.82;;
31390;SDS011;18022;45.492;11.548;2023-04-07T00:42:22;25.33;;;14.18;;
31390;SDS011;18022;45.492;11.548;2023-04-07T00:44:48;18.90;;;14.27;;
31390;SDS011;18022;45.492;11.548;2023-04-07T00:47:14;17.25;;;13.70;;
31390;SDS011;18022;45.492;11.548;2023-04-07T00:49:40;17.58;;;14.20;;
31390;SDS011;18022;45.492;11.548;2023-04-07T00:52:06;21.70;;;14.75;;
31390;SDS011;18022;45.492;11.548;2023-04-07T00:54:32;19.15;;;14.73;;
31390;SDS011;18022;45.492;11.548;2023-04-07T00:56:58;18.38;;;15.18;;
31390;SDS011;18022;45.492;11.548;2023-04-07T00:59:25;20.00;;;15.23;;
31390;SDS011;18022;45.492;11.548;2023-04-07T01:04:31;17.77;;;14.27;;
31390;SDS011;18022;45.492;11.548;2023-04-07T01:07:04;19.25;;;13.90;;
31390;SDS011;18022;45.492;11.548;2023-04-07T01:09:36;19.40;;;13.88;;
31390;SDS011;18022;45.492;11.548;2023-04-07T01:12:14;20.73;;;14.27;;
31390;SDS011;18022;45.492;11.548;2023-04-07T01:14:46;17.92;;;13.55;;
31390;SDS011;18022;45.492;11.548;2023-04-07T01:17:16;17.05;;;13.27;;
31390;SDS011;18022;45.492;11.548;2023-04-07T01:19:46;16.73;;;13.65;;
31390;SDS011;18022;45.492;11.548;2023-04-07T01:22:15;16.27;;;12.95;;
31390;SDS011;18022;45.492;11.548;2023-04-07T01:27:16;18.80;;;13.80;;
31390;SDS011;18022;45.492;11.548;2023-04-07T01:29:43;16.65;;;14.20;;
31390;SDS011;18022;45.492;11.548;2023-04-07T01:32:12;18.80;;;13.45;;
31390;SDS011;18022;45.492;11.548;2023-04-07T01:34:39;18.95;;;13.15;;
31390;SDS011;18022;45.492;11.548;2023-04-07T01:37:06;18.15;;;13.57;;
31390;SDS011;18022;45.492;11.548;2023-04-07T01:39:33;21.00;;;14.00;;
31390;SDS011;18022;45.492;11.548;2023-04-07T01:41:59;19.55;;;14.18;;
31390;SDS011;18022;45.492;11.548;2023-04-07T01:44:26;18.13;;;14.70;;
31390;SDS011;18022;45.492;11.548;2023-04-07T01:46:53;16.77;;;13.80;;
31390;SDS011;18022;45.492;11.548;2023-04-07T01:49:20;17.47;;;13.73;;
31390;SDS011;18022;45.492;11.548;2023-04-07T01:51:46;17.67;;;14.07;;
31390;SDS011;18022;45.492;11.548;2023-04-07T01:54:14;19.35;;;14.43;;
31390;SDS011;18022;45.492;11.548;2023-04-07T01:56:42;18.48;;;14.15;;
31390;SDS011;18022;45.492;11.548;2023-04-07T01:59:08;19.70;;;14.90;;
31390;SDS011;18022;45.492;11.548;2023-04-07T02:01:34;21.40;;;14.80;;
31390;SDS011;18022;45.492;11.548;2023-04-07T02:04:01;20.60;;;13.57;;
31390;SDS011;18022;45.492;11.548;2023-04-07T02:06:32;19.70;;;13.68;;
31390;SDS011;18022;45.492;11.548;2023-04-07T02:11:25;19.08;;;14.18;;
31390;SDS011;18022;45.492;11.548;2023-04-07T02:13:52;18.27;;;13.25;;
31390;SDS011;18022;45.492;11.548;2023-04-07T02:16:19;17.52;;;14.63;;
31390;SDS011;18022;45.492;11.548;2023-04-07T02:18:45;18.77;;;14.65;;
31390;SDS011;18022;45.492;11.548;2023-04-07T02:21:12;18.48;;;14.48;;
31390;SDS011;18022;45.492;11.548;2023-04-07T02:23:39;20.05;;;14.70;;
31390;SDS011;18022;45.492;11.548;2023-04-07T02:26:05;17.40;;;14.05;;
31390;SDS011;18022;45.492;11.548;2023-04-07T02:28:31;19.20;;;14.68;;
31390;SDS011;18022;45.492;11.548;2023-04-07T02:30:57;21.42;;;14.10;;
31390;SDS011;18022;45.492;11.548;2023-04-07T02:33:23;22.02;;;14.40;;
31390;SDS011;18022;45.492;11.548;2023-04-07T02:35:49;20.35;;;13.85;;
31390;SDS011;18022;45.492;11.548;2023-04-07T02:38:15;19.05;;;14.25;;
31390;SDS011;18022;45.492;11.548;2023-04-07T02:40:41;18.10;;;14.55;;
31390;SDS011;18022;45.492;11.548;2023-04-07T02:43:07;19.15;;;13.23;;
31390;SDS011;18022;45.492;11.548;2023-04-07T02:45:33;18.92;;;13.45;;
31390;SDS011;18022;45.492;11.548;2023-04-07T02:47:59;19.40;;;14.18;;
31390;SDS011;18022;45.492;11.548;2023-04-07T02:50:26;18.75;;;14.30;;
31390;SDS011;18022;45.492;11.548;2023-04-07T02:52:53;17.50;;;14.10;;
31390;SDS011;18022;45.492;11.548;2023-04-07T02:55:19;20.00;;;14.07;;
31390;SDS011;18022;45.492;11.548;2023-04-07T02:57:45;19.38;;;14.80;;
31390;SDS011;18022;45.492;11.548;2023-04-07T03:00:11;20.88;;;14.15;;
31390;SDS011;18022;45.492;11.548;2023-04-07T03:02:37;20.58;;;13.82;;
31390;SDS011;18022;45.492;11.548;2023-04-07T03:05:03;15.48;;;12.73;;
31390;SDS011;18022;45.492;11.548;2023-04-07T03:07:30;17.90;;;13.32;;
31390;SDS011;18022;45.492;11.548;2023-04-07T03:09:56;19.70;;;13.55;;
31390;SDS011;18022;45.492;11.548;2023-04-07T03:12:22;16.40;;;13.52;;
31390;SDS011;18022;45.492;11.548;2023-04-07T03:14:48;17.58;;;13.77;;
31390;SDS011;18022;45.492;11.548;2023-04-07T03:17:14;18.70;;;13.98;;
31390;SDS011;18022;45.492;11.548;2023-04-07T03:19:40;20.90;;;14.23;;
31390;SDS011;18022;45.492;11.548;2023-04-07T03:22:06;16.88;;;13.55;;
31390;SDS011;18022;45.492;11.548;2023-04-07T03:24:32;19.85;;;14.70;;
31390;SDS011;18022;45.492;11.548;2023-04-07T03:26:58;19.23;;;13.70;;
31390;SDS011;18022;45.492;11.548;2023-04-07T03:29:26;17.17;;;13.18;;
31390;SDS011;18022;45.492;11.548;2023-04-07T03:31:52;17.70;;;13.23;;
31390;SDS011;18022;45.492;11.548;2023-04-07T03:34:18;19.30;;;14.05;;
31390;SDS011;18022;45.492;11.548;2023-04-07T03:36:44;16.35;;;13.82;;
31390;SDS011;18022;45.492;11.548;2023-04-07T03:39:10;17.10;;;13.52;;
31390;SDS011;18022;45.492;11.548;2023-04-07T03:41:37;20.75;;;15.00;;
31390;SDS011;18022;45.492;11.548;2023-04-07T03:44:03;19.73;;;14.45;;
31390;SDS011;18022;45.492;11.548;2023-04-07T03:46:29;21.00;;;14.25;;
31390;SDS011;18022;45.492;11.548;2023-04-07T03:48:55;18.38;;;13.70;;
31390;SDS011;18022;45.492;11.548;2023-04-07T03:51:21;16.92;;;14.32;;
31390;SDS011;18022;45.492;11.548;2023-04-07T03:53:47;19.00;;;14.25;;
31390;SDS011;18022;45.492;11.548;2023-04-07T03:56:13;20.58;;;14.63;;
31390;SDS011;18022;45.492;11.548;2023-04-07T03:58:40;18.45;;;14.52;;
31390;SDS011;18022;45.492;11.548;2023-04-07T04:01:06;19.55;;;15.18;;
31390;SDS011;18022;45.492;11.548;2023-04-07T04:03:33;23.23;;;15.88;;
31390;SDS011;18022;45.492;11.548;2023-04-07T04:05:59;23.42;;;15.52;;
31390;SDS011;18022;45.492;11.548;2023-04-07T04:08:25;20.30;;;15.35;;
31390;SDS011;18022;45.492;11.548;2023-04-07T04:10:51;23.90;;;14.80;;
31390;SDS011;18022;45.492;11.548;2023-04-07T04:13:17;20.40;;;14.73;;
31390;SDS011;18022;45.492;11.548;2023-04-07T04:15:43;20.83;;;15.60;;
31390;SDS011;18022;45.492;11.548;2023-04-07T04:18:10;19.33;;;14.52;;
31390;SDS011;18022;45.492;11.548;2023-04-07T04:20:36;20.23;;;15.38;;
31390;SDS011;18022;45.492;11.548;2023-04-07T04:23:02;21.20;;;15.48;;
31390;SDS011;18022;45.492;11.548;2023-04-07T04:25:28;18.92;;;14.43;;
31390;SDS011;18022;45.492;11.548;2023-04-07T04:27:54;18.08;;;14.90;;
31390;SDS011;18022;45.492;11.548;2023-04-07T04:30:20;19.25;;;14.30;;
31390;SDS011;18022;45.492;11.548;2023-04-07T04:32:46;19.98;;;14.15;;
31390;SDS011;18022;45.492;11.548;2023-04-07T04:35:13;22.35;;;14.95;;
31390;SDS011;18022;45.492;11.548;2023-04-07T04:37:39;22.35;;;15.70;;
31390;SDS011;18022;45.492;11.548;2023-04-07T04:40:05;19.27;;;14.23;;
31390;SDS011;18022;45.492;11.548;2023-04-07T04:42:32;23.10;;;14.93;;
31390;SDS011;18022;45.492;11.548;2023-04-07T04:44:58;18.60;;;14.68;;
31390;SDS011;18022;45.492;11.548;2023-04-07T04:47:25;20.20;;;14.93;;
31390;SDS011;18022;45.492;11.548;2023-04-07T04:49:51;20.00;;;15.65;;
31390;SDS011;18022;45.492;11.548;2023-04-07T04:52:17;20.83;;;15.90;;
31390;SDS011;18022;45.492;11.548;2023-04-07T04:54:43;22.00;;;16.30;;
31390;SDS011;18022;45.492;11.548;2023-04-07T04:57:09;22.17;;;15.45;;
31390;SDS011;18022;45.492;11.548;2023-04-07T04:59:35;23.55;;;15.98;;
31390;SDS011;18022;45.492;11.548;2023-04-07T05:02:01;25.17;;;15.68;;
31390;SDS011;18022;45.492;11.548;2023-04-07T05:04:27;23.67;;;15.68;;
31390;SDS011;18022;45.492;11.548;2023-04-07T05:06:53;21.00;;;14.63;;
31390;SDS011;18022;45.492;11.548;2023-04-07T05:09:19;25.70;;;15.80;;
31390;SDS011;18022;45.492;11.548;2023-04-07T05:11:45;22.50;;;15.48;;
31390;SDS011;18022;45.492;11.548;2023-04-07T05:14:12;20.90;;;15.25;;
31390;SDS011;18022;45.492;11.548;2023-04-07T05:16:38;20.60;;;14.77;;
31390;SDS011;18022;45.492;11.548;2023-04-07T05:19:04;23.35;;;15.02;;
31390;SDS011;18022;45.492;11.548;2023-04-07T05:21:30;21.45;;;14.77;;
31390;SDS011;18022;45.492;11.548;2023-04-07T05:23:56;28.30;;;16.65;;
31390;SDS011;18022;45.492;11.548;2023-04-07T05:26:22;19.75;;;14.48;;
31390;SDS011;18022;45.492;11.548;2023-04-07T05:28:48;18.23;;;14.50;;
31390;SDS011;18022;45.492;11.548;2023-04-07T05:31:14;21.48;;;15.73;;
31390;SDS011;18022;45.492;11.548;2023-04-07T05:33:40;24.05;;;16.77;;
31390;SDS011;18022;45.492;11.548;2023-04-07T05:36:06;24.50;;;16.92;;
31390;SDS011;18022;45.492;11.548;2023-04-07T05:38:32;24.88;;;18.02;;
31390;SDS011;18022;45.492;11.548;2023-04-07T05:40:58;26.88;;;17.45;;
31390;SDS011;18022;45.492;11.548;2023-04-07T05:43:25;25.90;;;17.60;;
31390;SDS011;18022;45.492;11.548;2023-04-07T05:45:51;21.95;;;16.20;;
31390;SDS011;18022;45.492;11.548;2023-04-07T05:48:17;23.05;;;16.73;;
31390;SDS011;18022;45.492;11.548;2023-04-07T05:50:43;26.35;;;16.73;;
31390;SDS011;18022;45.492;11.548;2023-04-07T05:53:09;24.08;;;17.40;;
31390;SDS011;18022;45.492;11.548;2023-04-07T05:55:35;24.77;;;17.23;;
31390;SDS011;18022;45.492;11.548;2023-04-07T05:58:01;26.10;;;18.25;;
31390;SDS011;18022;45.492;11.548;2023-04-07T06:00:27;29.98;;;19.35;;
31390;SDS011;18022;45.492;11.548;2023-04-07T06:02:53;30.80;;;19.20;;
31390;SDS011;18022;45.492;11.548;2023-04-07T06:05:19;30.23;;;18.38;;
31390;SDS011;18022;45.492;11.548;2023-04-07T06:07:45;24.45;;;19.23;;
31390;SDS011;18022;45.492;11.548;2023-04-07T06:10:11;29.95;;;20.13;;
31390;SDS011;18022;45.492;11.548;2023-04-07T06:12:37;29.13;;;19.98;;
31390;SDS011;18022;45.492;11.548;2023-04-07T06:15:03;28.70;;;20.77;;
31390;SDS011;18022;45.492;11.548;2023-04-07T06:17:30;29.48;;;20.13;;
31390;SDS011;18022;45.492;11.548;2023-04-07T06:19:56;27.65;;;20.58;;
31390;SDS011;18022;45.492;11.548;2023-04-07T06:22:22;27.60;;;20.30;;
31390;SDS011;18022;45.492;11.548;2023-04-07T06:24:48;29.85;;;20.30;;
31390;SDS011;18022;45.492;11.548;2023-04-07T06:27:14;25.25;;;19.73;;
31390;SDS011;18022;45.492;11.548;2023-04-07T06:29:41;28.40;;;20.65;;
31390;SDS011;18022;45.492;11.548;2023-04-07T06:32:07;34.05;;;21.00;;
31390;SDS011;18022;45.492;11.548;2023-04-07T06:34:33;25.10;;;19.77;;
31390;SDS011;18022;45.492;11.548;2023-04-07T06:36:59;26.17;;;19.58;;
31390;SDS011;18022;45.492;11.548;2023-04-07T06:39:25;29.42;;;20.52;;
31390;SDS011;18022;45.492;11.548;2023-04-07T06:41:51;29.52;;;21.35;;
31390;SDS011;18022;45.492;11.548;2023-04-07T06:44:17;29.70;;;20.67;;
31390;SDS011;18022;45.492;11.548;2023-04-07T06:46:43;27.02;;;21.23;;
31390;SDS011;18022;45.492;11.548;2023-04-07T06:49:12;27.77;;;20.60;;
31390;SDS011;18022;45.492;11.548;2023-04-07T06:51:38;28.65;;;21.38;;
31390;SDS011;18022;45.492;11.548;2023-04-07T06:54:04;33.17;;;20.23;;
31390;SDS011;18022;45.492;11.548;2023-04-07T06:56:36;25.08;;;20.00;;
31390;SDS011;18022;45.492;11.548;2023-04-07T06:59:03;26.52;;;20.23;;
31390;SDS011;18022;45.492;11.548;2023-04-07T07:01:29;26.95;;;20.38;;
31390;SDS011;18022;45.492;11.548;2023-04-07T07:03:55;27.33;;;20.65;;
31390;SDS011;18022;45.492;11.548;2023-04-07T07:06:21;26.90;;;19.80;;
31390;SDS011;18022;45.492;11.548;2023-04-07T07:08:47;26.55;;;20.08;;
31390;SDS011;18022;45.492;11.548;2023-04-07T07:11:13;29.50;;;19.70;;
31390;SDS011;18022;45.492;11.548;2023-04-07T07:13:40;27.85;;;19.60;;
31390;SDS011;18022;45.492;11.548;2023-04-07T07:16:06;28.90;;;20.73;;
31390;SDS011;18022;45.492;11.548;2023-04-07T07:18:32;28.52;;;22.00;;
31390;SDS011;18022;45.492;11.548;2023-04-07T07:20:58;29.75;;;21.38;;
31390;SDS011;18022;45.492;11.548;2023-04-07T07:23:24;28.23;;;21.00;;
31390;SDS011;18022;45.492;11.548;2023-04-07T07:25:50;30.42;;;21.50;;
31390;SDS011;18022;45.492;11.548;2023-04-07T07:28:16;27.73;;;18.67;;
31390;SDS011;18022;45.492;11.548;2023-04-07T07:30:42;33.45;;;21.33;;
31390;SDS011;18022;45.492;11.548;2023-04-07T07:33:08;28.38;;;20.38;;
31390;SDS011;18022;45.492;11.548;2023-04-07T07:35:34;32.20;;;21.73;;
31390;SDS011;18022;45.492;11.548;2023-04-07T07:38:02;33.77;;;21.10;;
31390;SDS011;18022;45.492;11.548;2023-04-07T07:40:28;28.92;;;20.33;;
31390;SDS011;18022;45.492;11.548;2023-04-07T07:42:54;32.50;;;21.83;;
31390;SDS011;18022;45.492;11.548;2023-04-07T07:45:20;30.00;;;21.13;;
31390;SDS011;18022;45.492;11.548;2023-04-07T07:47:46;32.03;;;19.90;;
31390;SDS011;18022;45.492;11.548;2023-04-07T07:50:12;30.98;;;19.73;;
31390;SDS011;18022;45.492;11.548;2023-04-07T07:52:38;30.45;;;19.85;;
31390;SDS011;18022;45.492;11.548;2023-04-07T07:55:05;29.55;;;19.88;;
31390;SDS011;18022;45.492;11.548;2023-04-07T07:57:31;33.88;;;20.10;;
31390;SDS011;18022;45.492;11.548;2023-04-07T07:59:57;30.83;;;19.67;;
31390;SDS011;18022;45.492;11.548;2023-04-07T08:02:24;25.10;;;17.40;;
31390;SDS011;18022;45.492;11.548;2023-04-07T08:04:55;25.23;;;19.38;;
31390;SDS011;18022;45.492;11.548;2023-04-07T08:07:21;30.00;;;18.77;;
31390;SDS011;18022;45.492;11.548;2023-04-07T08:09:47;37.85;;;19.58;;
31390;SDS011;18022;45.492;11.548;2023-04-07T08:12:13;27.90;;;19.25;;
31390;SDS011;18022;45.492;11.548;2023-04-07T08:14:39;28.92;;;19.30;;
31390;SDS011;18022;45.492;11.548;2023-04-07T08:17:06;26.10;;;18.95;;
31390;SDS011;18022;45.492;11.548;2023-04-07T08:19:32;26.98;;;18.75;;
31390;SDS011;18022;45.492;11.548;2023-04-07T08:21:58;27.88;;;19.38;;
31390;SDS011;18022;45.492;11.548;2023-04-07T08:24:24;28.70;;;20.55;;
31390;SDS011;18022;45.492;11.548;2023-04-07T08:26:50;27.63;;;20.55;;
31390;SDS011;18022;45.492;11.548;2023-04-07T08:29:16;27.63;;;19.23;;
31390;SDS011;18022;45.492;11.548;2023-04-07T08:31:42;28.45;;;20.17;;
31390;SDS011;18022;45.492;11.548;2023-04-07T08:34:08;25.85;;;19.98;;
31390;SDS011;18022;45.492;11.548;2023-04-07T08:36:34;31.35;;;20.77;;
31390;SDS011;18022;45.492;11.548;2023-04-07T08:39:00;30.40;;;21.15;;
31390;SDS011;18022;45.492;11.548;2023-04-07T08:41:31;28.98;;;20.52;;
31390;SDS011;18022;45.492;11.548;2023-04-07T08:43:58;31.45;;;21.02;;
31390;SDS011;18022;45.492;11.548;2023-04-07T08:46:26;32.58;;;20.35;;
31390;SDS011;18022;45.492;11.548;2023-04-07T08:48:52;28.10;;;19.38;;
31390;SDS011;18022;45.492;11.548;2023-04-07T08:51:26;30.45;;;20.85;;
31390;SDS011;18022;45.492;11.548;2023-04-07T08:53:52;31.10;;;20.63;;
31390;SDS011;18022;45.492;11.548;2023-04-07T08:56:19;31.92;;;20.92;;
31390;SDS011;18022;45.492;11.548;2023-04-07T08:58:46;30.13;;;21.75;;
31390;SDS011;18022;45.492;11.548;2023-04-07T09:01:12;31.02;;;20.27;;
31390;SDS011;18022;45.492;11.548;2023-04-07T09:03:40;28.52;;;20.30;;
31390;SDS011;18022;45.492;11.548;2023-04-07T09:06:07;29.93;;;21.47;;
31390;SDS011;18022;45.492;11.548;2023-04-07T09:08:35;32.85;;;22.73;;
31390;SDS011;18022;45.492;11.548;2023-04-07T09:11:01;31.75;;;21.95;;
31390;SDS011;18022;45.492;11.548;2023-04-07T09:13:27;27.73;;;20.60;;
31390;SDS011;18022;45.492;11.548;2023-04-07T09:18:21;31.30;;;21.25;;
31390;SDS011;18022;45.492;11.548;2023-04-07T09:20:57;34.72;;;21.30;;
31390;SDS011;18022;45.492;11.548;2023-04-07T09:23:30;33.05;;;20.60;;
31390;SDS011;18022;45.492;11.548;2023-04-07T09:26:01;33.22;;;21.38;;
31390;SDS011;18022;45.492;11.548;2023-04-07T09:28:53;33.80;;;21.98;;
31390;SDS011;18022;45.492;11.548;2023-04-07T09:31:20;30.67;;;21.92;;
31390;SDS011;18022;45.492;11.548;2023-04-07T09:33:49;27.65;;;19.73;;
31390;SDS011;18022;45.492;11.548;2023-04-07T09:36:15;35.60;;;20.65;;
31390;SDS011;18022;45.492;11.548;2023-04-07T09:38:42;31.48;;;20.75;;
31390;SDS011;18022;45.492;11.548;2023-04-07T09:41:09;30.00;;;19.75;;
31390;SDS011;18022;45.492;11.548;2023-04-07T09:43:39;26.45;;;20.02;;
31390;SDS011;18022;45.492;11.548;2023-04-07T09:46:06;28.00;;;19.05;;
31390;SDS011;18022;45.492;11.548;2023-04-07T09:48:32;30.67;;;19.25;;
31390;SDS011;18022;45.492;11.548;2023-04-07T09:51:05;30.35;;;19.90;;
31390;SDS011;18022;45.492;11.548;2023-04-07T09:56:11;30.38;;;18.50;;
31390;SDS011;18022;45.492;11.548;2023-04-07T09:58:38;24.08;;;17.15;;
31390;SDS011;18022;45.492;11.548;2023-04-07T10:01:07;23.15;;;17.08;;
31390;SDS011;18022;45.492;11.548;2023-04-07T10:03:34;25.55;;;17.55;;
31390;SDS011;18022;45.492;11.548;2023-04-07T10:06:00;24.85;;;16.50;;
31390;SDS011;18022;45.492;11.548;2023-04-07T10:08:26;24.83;;;17.50;;
31390;SDS011;18022;45.492;11.548;2023-04-07T10:10:53;27.23;;;17.90;;
31390;SDS011;18022;45.492;11.548;2023-04-07T10:13:19;30.00;;;16.65;;
31390;SDS011;18022;45.492;11.548;2023-04-07T10:15:46;22.65;;;16.30;;
31390;SDS011;18022;45.492;11.548;2023-04-07T10:18:12;21.23;;;15.18;;
31390;SDS011;18022;45.492;11.548;2023-04-07T10:20:39;22.20;;;15.93;;
31390;SDS011;18022;45.492;11.548;2023-04-07T10:23:09;22.83;;;15.27;;
31390;SDS011;18022;45.492;11.548;2023-04-07T10:25:38;23.02;;;15.43;;
31390;SDS011;18022;45.492;11.548;2023-04-07T10:28:05;28.13;;;17.88;;
31390;SDS011;18022;45.492;11.548;2023-04-07T10:30:32;29.83;;;17.00;;
31390;SDS011;18022;45.492;11.548;2023-04-07T10:32:59;26.27;;;16.98;;
31390;SDS011;18022;45.492;11.548;2023-04-07T10:35:25;26.17;;;16.58;;
31390;SDS011;18022;45.492;11.548;2023-04-07T10:40:38;29.83;;;17.25;;
31390;SDS011;18022;45.492;11.548;2023-04-07T10:43:05;27.63;;;17.80;;
31390;SDS011;18022;45.492;11.548;2023-04-07T10:48:18;22.27;;;16.23;;
31390;SDS011;18022;45.492;11.548;2023-04-07T10:50:44;26.60;;;16.83;;
31390;SDS011;18022;45.492;11.548;2023-04-07T10:53:11;27.65;;;17.85;;
31390;SDS011;18022;45.492;11.548;2023-04-07T10:55:41;24.60;;;16.80;;
31390;SDS011;18022;45.492;11.548;2023-04-07T10:58:13;30.02;;;16.42;;
31390;SDS011;18022;45.492;11.548;2023-04-07T11:00:40;25.52;;;16.92;;
31390;SDS011;18022;45.492;11.548;2023-04-07T11:03:12;28.75;;;15.88;;
31390;SDS011;18022;45.492;11.548;2023-04-07T11:05:39;27.17;;;17.60;;
31390;SDS011;18022;45.492;11.548;2023-04-07T11:08:05;23.85;;;16.80;;
31390;SDS011;18022;45.492;11.548;2023-04-07T11:10:32;22.38;;;15.65;;
31390;SDS011;18022;45.492;11.548;2023-04-07T11:13:07;24.95;;;15.65;;
31390;SDS011;18022;45.492;11.548;2023-04-07T11:15:34;23.13;;;15.77;;
31390;SDS011;18022;45.492;11.548;2023-04-07T11:20:41;25.25;;;15.45;;
31390;SDS011;18022;45.492;11.548;2023-04-07T11:23:07;24.10;;;16.27;;
31390;SDS011;18022;45.492;11.548;2023-04-07T11:25:34;22.15;;;15.80;;
31390;SDS011;18022;45.492;11.548;2023-04-07T11:28:01;22.75;;;14.85;;
31390;SDS011;18022;45.492;11.548;2023-04-07T11:32:54;22.30;;;14.98;;
31390;SDS011;18022;45.492;11.548;2023-04-07T11:35:24;20.63;;;15.07;;
31390;SDS011;18022;45.492;11.548;2023-04-07T11:37:55;24.73;;;15.65;;
31390;SDS011;18022;45.492;11.548;2023-04-07T11:40:32;22.73;;;14.85;;
31390;SDS011;18022;45.492;11.548;2023-04-07T11:42:58;21.55;;;14.32;;
31390;SDS011;18022;45.492;11.548;2023-04-07T11:45:25;28.30;;;15.93;;
31390;SDS011;18022;45.492;11.548;2023-04-07T11:47:51;28.55;;;15.80;;
31390;SDS011;18022;45.492;11.548;2023-04-07T11:50:36;23.15;;;15.55;;
31390;SDS011;18022;45.492;11.548;2023-04-07T11:53:02;23.98;;;16.13;;
31390;SDS011;18022;45.492;11.548;2023-04-07T11:55:28;23.67;;;16.40;;
31390;SDS011;18022;45.492;11.548;2023-04-07T11:57:54;25.80;;;17.10;;
31390;SDS011;18022;45.492;11.548;2023-04-07T12:00:21;24.25;;;15.52;;
31390;SDS011;18022;45.492;11.548;2023-04-07T12:02:47;23.50;;;16.23;;
31390;SDS011;18022;45.492;11.548;2023-04-07T12:05:13;25.92;;;17.17;;
31390;SDS011;18022;45.492;11.548;2023-04-07T12:07:50;21.80;;;16.15;;
31390;SDS011;18022;45.492;11.548;2023-04-07T12:10:20;25.85;;;15.88;;
31390;SDS011;18022;45.492;11.548;2023-04-07T12:12:46;31.95;;;17.77;;
31390;SDS011;18022;45.492;11.548;2023-04-07T12:15:13;25.25;;;17.15;;
31390;SDS011;18022;45.492;11.548;2023-04-07T12:17:43;33.78;;;18.05;;
31390;SDS011;18022;45.492;11.548;2023-04-07T12:20:10;27.10;;;18.13;;
31390;SDS011;18022;45.492;11.548;2023-04-07T12:22:36;26.08;;;16.95;;
31390;SDS011;18022;45.492;11.548;2023-04-07T12:25:02;27.50;;;20.98;;
31390;SDS011;18022;45.492;11.548;2023-04-07T12:27:28;30.50;;;20.98;;
31390;SDS011;18022;45.492;11.548;2023-04-07T12:29:55;25.23;;;18.27;;
31390;SDS011;18022;45.492;11.548;2023-04-07T12:32:21;25.58;;;17.52;;
31390;SDS011;18022;45.492;11.548;2023-04-07T12:34:47;36.42;;;18.83;;
31390;SDS011;18022;45.492;11.548;2023-04-07T12:37:13;25.50;;;17.77;;
31390;SDS011;18022;45.492;11.548;2023-04-07T12:39:39;24.40;;;17.65;;
31390;SDS011;18022;45.492;11.548;2023-04-07T12:42:05;34.95;;;17.60;;
31390;SDS011;18022;45.492;11.548;2023-04-07T12:44:35;31.83;;;27.42;;
31390;SDS011;18022;45.492;11.548;2023-04-07T12:47:01;39.53;;;35.67;;
31390;SDS011;18022;45.492;11.548;2023-04-07T12:49:27;27.15;;;22.23;;
31390;SDS011;18022;45.492;11.548;2023-04-07T12:51:53;26.85;;;17.63;;
31390;SDS011;18022;45.492;11.548;2023-04-07T12:54:20;27.33;;;17.58;;
31390;SDS011;18022;45.492;11.548;2023-04-07T12:56:46;25.80;;;17.73;;
31390;SDS011;18022;45.492;11.548;2023-04-07T12:59:12;29.48;;;18.02;;
31390;SDS011;18022;45.492;11.548;2023-04-07T13:01:38;24.02;;;20.30;;
31390;SDS011;18022;45.492;11.548;2023-04-07T13:04:04;26.00;;;23.05;;
31390;SDS011;18022;45.492;11.548;2023-04-07T13:06:30;28.92;;;21.20;;
31390;SDS011;18022;45.492;11.548;2023-04-07T13:08:57;25.30;;;17.10;;
31390;SDS011;18022;45.492;11.548;2023-04-07T13:11:23;23.02;;;16.83;;
31390;SDS011;18022;45.492;11.548;2023-04-07T13:13:49;25.08;;;17.58;;
31390;SDS011;18022;45.492;11.548;2023-04-07T13:16:15;24.65;;;18.27;;
31390;SDS011;18022;45.492;11.548;2023-04-07T13:18:41;24.30;;;17.85;;
31390;SDS011;18022;45.492;11.548;2023-04-07T13:21:08;24.67;;;17.17;;
31390;SDS011;18022;45.492;11.548;2023-04-07T13:23:34;27.10;;;17.90;;
31390;SDS011;18022;45.492;11.548;2023-04-07T13:26:00;26.25;;;18.35;;
31390;SDS011;18022;45.492;11.548;2023-04-07T13:28:26;27.10;;;17.33;;
31390;SDS011;18022;45.492;11.548;2023-04-07T13:30:52;27.42;;;17.75;;
31390;SDS011;18022;45.492;11.548;2023-04-07T13:33:19;26.50;;;17.63;;
31390;SDS011;18022;45.492;11.548;2023-04-07T13:35:45;28.27;;;17.27;;
31390;SDS011;18022;45.492;11.548;2023-04-07T13:38:11;24.02;;;17.55;;
31390;SDS011;18022;45.492;11.548;2023-04-07T13:40:37;29.08;;;18.67;;
31390;SDS011;18022;45.492;11.548;2023-04-07T13:43:03;29.92;;;18.48;;
31390;SDS011;18022;45.492;11.548;2023-04-07T13:45:30;28.02;;;18.25;;
31390;SDS011;18022;45.492;11.548;2023-04-07T13:47:57;30.30;;;18.83;;
31390;SDS011;18022;45.492;11.548;2023-04-07T13:50:23;30.60;;;18.50;;
31390;SDS011;18022;45.492;11.548;2023-04-07T13:52:49;25.48;;;18.23;;
31390;SDS011;18022;45.492;11.548;2023-04-07T13:55:15;24.88;;;17.83;;
31390;SDS011;18022;45.492;11.548;2023-04-07T13:57:44;27.35;;;17.73;;
31390;SDS011;18022;45.492;11.548;2023-04-07T14:00:10;23.88;;;16.63;;
31390;SDS011;18022;45.492;11.548;2023-04-07T14:02:36;29.05;;;18.45;;
31390;SDS011;18022;45.492;11.548;2023-04-07T14:05:03;29.00;;;17.75;;
31390;SDS011;18022;45.492;11.548;2023-04-07T14:07:29;25.88;;;17.70;;
31390;SDS011;18022;45.492;11.548;2023-04-07T14:09:55;29.33;;;17.92;;
31390;SDS011;18022;45.492;11.548;2023-04-07T14:12:22;26.00;;;17.63;;
31390;SDS011;18022;45.492;11.548;2023-04-07T14:14:48;29.17;;;18.27;;
31390;SDS011;18022;45.492;11.548;2023-04-07T14:17:16;27.33;;;18.55;;
31390;SDS011;18022;45.492;11.548;2023-04-07T14:19:42;28.23;;;18.15;;
31390;SDS011;18022;45.492;11.548;2023-04-07T14:22:09;27.25;;;17.77;;
31390;SDS011;18022;45.492;11.548;2023-04-07T14:24:35;30.27;;;18.45;;
31390;SDS011;18022;45.492;11.548;2023-04-07T14:27:01;30.88;;;18.60;;
31390;SDS011;18022;45.492;11.548;2023-04-07T14:29:28;28.95;;;18.45;;